East Brunswick, Pennsylvania
Current Conditions -  °F | °C
As of 9:55 PM on Saturday 25 Oct 2014 (Local Time) from KHZL Reporting Station
Light Rain Light Rain  
Wind Chill: 16°   Ceiling: 6000
Heat Index: 16°   Visibility: 10mi
Dew Point:   Wind: 8mph
Humidity: 59%   Direction: 250°WSW
Pressure: 29.65"   Gusts: NA
Location:  40.7138°N, 75.9395°W
Report Text: KHZL 260155Z AUTO 25007KT 10SM -RA SCT037 SCT047 OVC060 16/08 A2965 RMK AO2
Loading
Personal Weather Stations






























Interactive Weather Map
Tropical Storm Tracking
New forecast layout! Learn more

10-Day Weather Forecast

Advertisements
Track Severe Weather on mobile